sensor_id;sensor_type;location;lat;lon;timestamp;temperature;humidity
21722;DHT22;11023;48.274;7.794;2024-03-08T00:02:07;3.00;99.90
21722;DHT22;11023;48.274;7.794;2024-03-08T00:04:33;3.10;99.90
21722;DHT22;11023;48.274;7.794;2024-03-08T00:06:58;3.00;99.90
21722;DHT22;11023;48.274;7.794;2024-03-08T00:09:24;3.00;99.90
21722;DHT22;11023;48.274;7.794;2024-03-08T00:11:50;3.00;99.90
21722;DHT22;11023;48.274;7.794;2024-03-08T00:14:16;3.00;99.90
21722;DHT22;11023;48.274;7.794;2024-03-08T00:16:42;3.00;99.90
21722;DHT22;11023;48.274;7.794;2024-03-08T00:19:09;3.00;99.90
21722;DHT22;11023;48.274;7.794;2024-03-08T00:21:35;3.00;99.90
21722;DHT22;11023;48.274;7.794;2024-03-08T00:24:01;3.00;99.90
21722;DHT22;11023;48.274;7.794;2024-03-08T00:26:27;2.90;99.90
21722;DHT22;11023;48.274;7.794;2024-03-08T00:28:52;3.00;99.90
21722;DHT22;11023;48.274;7.794;2024-03-08T00:31:19;2.90;99.90
21722;DHT22;11023;48.274;7.794;2024-03-08T00:33:46;3.00;99.90
21722;DHT22;11023;48.274;7.794;2024-03-08T00:36:11;3.00;99.90
21722;DHT22;11023;48.274;7.794;2024-03-08T00:38:37;3.10;99.90
21722;DHT22;11023;48.274;7.794;2024-03-08T00:41:03;3.00;99.90
21722;DHT22;11023;48.274;7.794;2024-03-08T00:43:28;3.00;99.90
21722;DHT22;11023;48.274;7.794;2024-03-08T00:45:57;3.00;99.90
21722;DHT22;11023;48.274;7.794;2024-03-08T00:48:23;3.00;99.90
21722;DHT22;11023;48.274;7.794;2024-03-08T00:50:49;3.00;99.90
21722;DHT22;11023;48.274;7.794;2024-03-08T00:53:14;3.00;99.90
21722;DHT22;11023;48.274;7.794;2024-03-08T00:55:40;2.90;99.90
21722;DHT22;11023;48.274;7.794;2024-03-08T00:58:06;2.90;99.90
21722;DHT22;11023;48.274;7.794;2024-03-08T01:00:31;2.90;99.90
21722;DHT22;11023;48.274;7.794;2024-03-08T01:02:57;2.80;99.90
21722;DHT22;11023;48.274;7.794;2024-03-08T01:05:24;2.80;99.90
21722;DHT22;11023;48.274;7.794;2024-03-08T01:07:50;2.70;99.90
21722;DHT22;11023;48.274;7.794;2024-03-08T01:10:16;2.70;99.90
21722;DHT22;11023;48.274;7.794;2024-03-08T01:12:42;2.60;99.90
21722;DHT22;11023;48.274;7.794;2024-03-08T01:15:11;2.60;99.90
21722;DHT22;11023;48.274;7.794;2024-03-08T01:17:37;2.60;99.90
21722;DHT22;11023;48.274;7.794;2024-03-08T01:20:04;2.50;99.90
21722;DHT22;11023;48.274;7.794;2024-03-08T01:22:30;2.50;99.90
21722;DHT22;11023;48.274;7.794;2024-03-08T01:24:58;2.50;99.90
21722;DHT22;11023;48.274;7.794;2024-03-08T01:27:24;2.50;99.90
21722;DHT22;11023;48.274;7.794;2024-03-08T01:29:50;2.40;99.90
21722;DHT22;11023;48.274;7.794;2024-03-08T01:32:16;2.40;99.90
21722;DHT22;11023;48.274;7.794;2024-03-08T01:34:42;2.40;99.90
21722;DHT22;11023;48.274;7.794;2024-03-08T01:37:07;2.40;99.90
21722;DHT22;11023;48.274;7.794;2024-03-08T01:39:33;2.40;99.90
21722;DHT22;11023;48.274;7.794;2024-03-08T01:41:59;2.30;99.90
21722;DHT22;11023;48.274;7.794;2024-03-08T01:44:26;2.30;99.90
21722;DHT22;11023;48.274;7.794;2024-03-08T01:46:53;2.30;99.90
21722;DHT22;11023;48.274;7.794;2024-03-08T01:49:20;2.30;99.90
21722;DHT22;11023;48.274;7.794;2024-03-08T01:51:48;2.30;99.90
21722;DHT22;11023;48.274;7.794;2024-03-08T01:54:15;2.20;99.90
21722;DHT22;11023;48.274;7.794;2024-03-08T01:56:42;2.10;99.90
21722;DHT22;11023;48.274;7.794;2024-03-08T01:59:08;2.10;99.90
21722;DHT22;11023;48.274;7.794;2024-03-08T02:01:34;2.00;99.90
21722;DHT22;11023;48.274;7.794;2024-03-08T02:04:00;2.00;99.90
21722;DHT22;11023;48.274;7.794;2024-03-08T02:06:26;1.90;99.90
21722;DHT22;11023;48.274;7.794;2024-03-08T02:08:52;1.90;99.90
21722;DHT22;11023;48.274;7.794;2024-03-08T02:11:19;1.80;99.90
21722;DHT22;11023;48.274;7.794;2024-03-08T02:13:46;1.70;99.90
21722;DHT22;11023;48.274;7.794;2024-03-08T02:16:12;1.70;99.90
21722;DHT22;11023;48.274;7.794;2024-03-08T02:18:38;1.70;99.90
21722;DHT22;11023;48.274;7.794;2024-03-08T02:21:06;1.60;99.90
21722;DHT22;11023;48.274;7.794;2024-03-08T02:23:32;1.70;99.90
21722;DHT22;11023;48.274;7.794;2024-03-08T02:25:58;1.70;99.90
21722;DHT22;11023;48.274;7.794;2024-03-08T02:28:25;1.60;99.90
21722;DHT22;11023;48.274;7.794;2024-03-08T02:30:51;1.60;99.90
21722;DHT22;11023;48.274;7.794;2024-03-08T02:33:20;1.60;99.90
21722;DHT22;11023;48.274;7.794;2024-03-08T02:35:46;1.60;99.90
21722;DHT22;11023;48.274;7.794;2024-03-08T02:38:17;1.50;99.90
21722;DHT22;11023;48.274;7.794;2024-03-08T02:40:44;1.50;99.90
21722;DHT22;11023;48.274;7.794;2024-03-08T02:43:11;1.40;99.90
21722;DHT22;11023;48.274;7.794;2024-03-08T02:45:36;1.40;99.90
21722;DHT22;11023;48.274;7.794;2024-03-08T02:48:02;1.30;99.90
21722;DHT22;11023;48.274;7.794;2024-03-08T02:50:28;1.30;99.90
21722;DHT22;11023;48.274;7.794;2024-03-08T02:52:54;1.30;99.90
21722;DHT22;11023;48.274;7.794;2024-03-08T02:55:20;1.30;99.90
21722;DHT22;11023;48.274;7.794;2024-03-08T02:57:46;1.30;99.90
21722;DHT22;11023;48.274;7.794;2024-03-08T03:00:15;1.30;99.90
21722;DHT22;11023;48.274;7.794;2024-03-08T03:02:41;1.30;99.90
21722;DHT22;11023;48.274;7.794;2024-03-08T03:05:08;1.30;99.90
21722;DHT22;11023;48.274;7.794;2024-03-08T03:07:35;1.30;99.90
21722;DHT22;11023;48.274;7.794;2024-03-08T03:10:01;1.40;99.90
21722;DHT22;11023;48.274;7.794;2024-03-08T03:12:31;1.30;99.90
21722;DHT22;11023;48.274;7.794;2024-03-08T03:14:57;1.40;99.90
21722;DHT22;11023;48.274;7.794;2024-03-08T03:17:26;1.30;99.90
21722;DHT22;11023;48.274;7.794;2024-03-08T03:19:52;1.40;99.90
21722;DHT22;11023;48.274;7.794;2024-03-08T03:22:18;1.30;99.90
21722;DHT22;11023;48.274;7.794;2024-03-08T03:24:45;1.30;99.90
21722;DHT22;11023;48.274;7.794;2024-03-08T03:27:17;1.30;99.90
21722;DHT22;11023;48.274;7.794;2024-03-08T03:29:43;1.30;99.90
21722;DHT22;11023;48.274;7.794;2024-03-08T03:32:12;1.30;99.90
21722;DHT22;11023;48.274;7.794;2024-03-08T03:34:39;1.30;99.90
21722;DHT22;11023;48.274;7.794;2024-03-08T03:37:05;1.30;99.90
21722;DHT22;11023;48.274;7.794;2024-03-08T03:39:32;1.30;99.90
21722;DHT22;11023;48.274;7.794;2024-03-08T03:42:02;1.20;99.90
21722;DHT22;11023;48.274;7.794;2024-03-08T03:44:28;1.20;99.90
21722;DHT22;11023;48.274;7.794;2024-03-08T03:46:54;1.10;99.90
21722;DHT22;11023;48.274;7.794;2024-03-08T03:49:20;1.10;99.90
21722;DHT22;11023;48.274;7.794;2024-03-08T03:51:46;1.00;99.90
21722;DHT22;11023;48.274;7.794;2024-03-08T03:54:12;1.00;99.90
21722;DHT22;11023;48.274;7.794;2024-03-08T03:56:38;0.90;99.90
21722;DHT22;11023;48.274;7.794;2024-03-08T03:59:05;0.90;99.90
21722;DHT22;11023;48.274;7.794;2024-03-08T04:01:32;0.90;99.90
21722;DHT22;11023;48.274;7.794;2024-03-08T04:03:58;0.90;99.90
21722;DHT22;11023;48.274;7.794;2024-03-08T04:06:23;0.90;99.90
21722;DHT22;11023;48.274;7.794;2024-03-08T04:08:49;0.80;99.90
21722;DHT22;11023;48.274;7.794;2024-03-08T04:11:15;0.80;99.90
21722;DHT22;11023;48.274;7.794;2024-03-08T04:13:43;0.70;99.90
21722;DHT22;11023;48.274;7.794;2024-03-08T04:16:09;0.60;99.90
21722;DHT22;11023;48.274;7.794;2024-03-08T04:18:37;0.60;99.90
21722;DHT22;11023;48.274;7.794;2024-03-08T04:21:04;0.60;99.90
21722;DHT22;11023;48.274;7.794;2024-03-08T04:23:34;0.60;99.90
21722;DHT22;11023;48.274;7.794;2024-03-08T04:26:02;0.60;99.90
21722;DHT22;11023;48.274;7.794;2024-03-08T04:28:29;0.60;99.90
21722;DHT22;11023;48.274;7.794;2024-03-08T04:30:55;0.60;99.90
21722;DHT22;11023;48.274;7.794;2024-03-08T04:33:21;0.60;99.90
21722;DHT22;11023;48.274;7.794;2024-03-08T04:35:49;0.70;99.90
21722;DHT22;11023;48.274;7.794;2024-03-08T04:38:15;0.70;99.90
21722;DHT22;11023;48.274;7.794;2024-03-08T04:40:41;0.70;99.90
21722;DHT22;11023;48.274;7.794;2024-03-08T04:43:07;0.70;99.90
21722;DHT22;11023;48.274;7.794;2024-03-08T04:45:34;0.70;99.90
21722;DHT22;11023;48.274;7.794;2024-03-08T04:47:59;0.60;99.90
21722;DHT22;11023;48.274;7.794;2024-03-08T04:50:25;0.60;99.90
21722;DHT22;11023;48.274;7.794;2024-03-08T04:52:54;0.60;99.90
21722;DHT22;11023;48.274;7.794;2024-03-08T04:55:20;0.60;99.90
21722;DHT22;11023;48.274;7.794;2024-03-08T04:57:47;0.60;99.90
21722;DHT22;11023;48.274;7.794;2024-03-08T05:00:13;0.60;99.90
21722;DHT22;11023;48.274;7.794;2024-03-08T05:02:40;0.50;99.90
21722;DHT22;11023;48.274;7.794;2024-03-08T05:05:07;0.50;99.90
21722;DHT22;11023;48.274;7.794;2024-03-08T05:07:34;0.50;99.90
21722;DHT22;11023;48.274;7.794;2024-03-08T05:10:00;0.50;99.90
21722;DHT22;11023;48.274;7.794;2024-03-08T05:12:27;0.50;99.90
21722;DHT22;11023;48.274;7.794;2024-03-08T05:14:53;0.50;99.90
21722;DHT22;11023;48.274;7.794;2024-03-08T05:17:19;0.50;99.90
21722;DHT22;11023;48.274;7.794;2024-03-08T05:19:45;0.50;99.90
21722;DHT22;11023;48.274;7.794;2024-03-08T05:22:10;0.50;99.90
21722;DHT22;11023;48.274;7.794;2024-03-08T05:24:36;0.50;99.90
21722;DHT22;11023;48.274;7.794;2024-03-08T05:27:02;0.50;99.90
21722;DHT22;11023;48.274;7.794;2024-03-08T05:29:29;0.50;99.90
21722;DHT22;11023;48.274;7.794;2024-03-08T05:31:55;0.60;99.90
21722;DHT22;11023;48.274;7.794;2024-03-08T05:34:21;0.60;99.90
21722;DHT22;11023;48.274;7.794;2024-03-08T05:36:50;0.60;99.90
21722;DHT22;11023;48.274;7.794;2024-03-08T05:39:17;0.50;99.90
21722;DHT22;11023;48.274;7.794;2024-03-08T05:41:43;0.50;99.90
21722;DHT22;11023;48.274;7.794;2024-03-08T05:44:10;0.50;99.90
21722;DHT22;11023;48.274;7.794;2024-03-08T05:46:36;0.50;99.90
21722;DHT22;11023;48.274;7.794;2024-03-08T05:49:06;0.50;99.90
21722;DHT22;11023;48.274;7.794;2024-03-08T05:51:36;0.40;99.90
21722;DHT22;11023;48.274;7.794;2024-03-08T05:54:06;0.40;99.90
21722;DHT22;11023;48.274;7.794;2024-03-08T05:56:32;0.40;99.90
21722;DHT22;11023;48.274;7.794;2024-03-08T05:58:58;0.40;99.90
21722;DHT22;11023;48.274;7.794;2024-03-08T06:01:25;0.40;99.90
21722;DHT22;11023;48.274;7.794;2024-03-08T06:03:54;0.40;99.90
21722;DHT22;11023;48.274;7.794;2024-03-08T06:06:24;0.40;99.90
21722;DHT22;11023;48.274;7.794;2024-03-08T06:08:50;0.40;99.90
21722;DHT22;11023;48.274;7.794;2024-03-08T06:11:17;0.40;99.90
21722;DHT22;11023;48.274;7.794;2024-03-08T06:13:43;0.40;99.90
21722;DHT22;11023;48.274;7.794;2024-03-08T06:16:09;0.30;99.90
21722;DHT22;11023;48.274;7.794;2024-03-08T06:18:35;0.30;99.90
21722;DHT22;11023;48.274;7.794;2024-03-08T06:21:08;0.30;99.90
21722;DHT22;11023;48.274;7.794;2024-03-08T06:23:37;0.30;99.90
21722;DHT22;11023;48.274;7.794;2024-03-08T06:26:06;0.30;99.90
21722;DHT22;11023;48.274;7.794;2024-03-08T06:28:32;0.30;99.90
21722;DHT22;11023;48.274;7.794;2024-03-08T06:30:58;0.30;99.90
21722;DHT22;11023;48.274;7.794;2024-03-08T06:33:24;0.30;99.90
21722;DHT22;11023;48.274;7.794;2024-03-08T06:35:55;0.40;99.90
21722;DHT22;11023;48.274;7.794;2024-03-08T06:38:24;0.40;99.90
21722;DHT22;11023;48.274;7.794;2024-03-08T06:40:50;0.40;99.90
21722;DHT22;11023;48.274;7.794;2024-03-08T06:43:17;0.40;99.90
21722;DHT22;11023;48.274;7.794;2024-03-08T06:45:47;0.40;99.90
21722;DHT22;11023;48.274;7.794;2024-03-08T06:48:18;0.50;99.90
21722;DHT22;11023;48.274;7.794;2024-03-08T06:50:45;0.50;99.90
21722;DHT22;11023;48.274;7.794;2024-03-08T06:53:11;0.50;99.90
21722;DHT22;11023;48.274;7.794;2024-03-08T06:55:37;0.60;99.90
21722;DHT22;11023;48.274;7.794;2024-03-08T06:58:04;0.60;99.90
21722;DHT22;11023;48.274;7.794;2024-03-08T07:00:29;0.70;99.90
21722;DHT22;11023;48.274;7.794;2024-03-08T07:02:56;0.70;99.90
21722;DHT22;11023;48.274;7.794;2024-03-08T07:05:27;0.80;99.90
21722;DHT22;11023;48.274;7.794;2024-03-08T07:07:52;0.90;99.90
21722;DHT22;11023;48.274;7.794;2024-03-08T07:10:23;0.90;99.90
21722;DHT22;11023;48.274;7.794;2024-03-08T07:12:50;1.00;99.90
21722;DHT22;11023;48.274;7.794;2024-03-08T07:15:16;1.10;99.90
21722;DHT22;11023;48.274;7.794;2024-03-08T07:17:47;1.20;99.90
21722;DHT22;11023;48.274;7.794;2024-03-08T07:20:14;1.30;99.90
21722;DHT22;11023;48.274;7.794;2024-03-08T07:22:44;1.30;99.90
21722;DHT22;11023;48.274;7.794;2024-03-08T07:25:13;1.40;99.90
21722;DHT22;11023;48.274;7.794;2024-03-08T07:27:53;1.40;99.90
21722;DHT22;11023;48.274;7.794;2024-03-08T07:30:20;1.50;99.90
21722;DHT22;11023;48.274;7.794;2024-03-08T07:33:05;1.60;99.90
21722;DHT22;11023;48.274;7.794;2024-03-08T07:35:32;1.70;99.90
21722;DHT22;11023;48.274;7.794;2024-03-08T07:37:58;1.70;99.90
21722;DHT22;11023;48.274;7.794;2024-03-08T07:40:25;1.80;99.90
21722;DHT22;11023;48.274;7.794;2024-03-08T07:42:51;1.80;99.90
21722;DHT22;11023;48.274;7.794;2024-03-08T07:45:17;1.90;99.90
21722;DHT22;11023;48.274;7.794;2024-03-08T07:47:43;2.00;99.90
21722;DHT22;11023;48.274;7.794;2024-03-08T07:50:09;2.10;99.90
21722;DHT22;11023;48.274;7.794;2024-03-08T07:52:35;2.20;99.90
21722;DHT22;11023;48.274;7.794;2024-03-08T07:55:02;2.30;99.90
21722;DHT22;11023;48.274;7.794;2024-03-08T07:57:29;2.40;99.90
21722;DHT22;11023;48.274;7.794;2024-03-08T07:59:55;2.40;99.90
21722;DHT22;11023;48.274;7.794;2024-03-08T08:02:45;2.50;99.90
21722;DHT22;11023;48.274;7.794;2024-03-08T08:05:16;2.60;99.90
21722;DHT22;11023;48.274;7.794;2024-03-08T08:07:47;2.70;99.90
21722;DHT22;11023;48.274;7.794;2024-03-08T08:10:17;2.80;99.90
21722;DHT22;11023;48.274;7.794;2024-03-08T08:12:53;2.90;99.90
21722;DHT22;11023;48.274;7.794;2024-03-08T08:15:20;3.00;99.90
21722;DHT22;11023;48.274;7.794;2024-03-08T08:17:46;3.10;99.90
21722;DHT22;11023;48.274;7.794;2024-03-08T08:20:13;3.10;99.90
21722;DHT22;11023;48.274;7.794;2024-03-08T08:22:46;3.20;99.90
21722;DHT22;11023;48.274;7.794;2024-03-08T08:25:13;3.30;99.90
21722;DHT22;11023;48.274;7.794;2024-03-08T08:27:47;3.30;99.90
21722;DHT22;11023;48.274;7.794;2024-03-08T08:30:15;3.40;99.90
21722;DHT22;11023;48.274;7.794;2024-03-08T08:32:41;3.50;99.90
21722;DHT22;11023;48.274;7.794;2024-03-08T08:35:11;3.60;99.90
21722;DHT22;11023;48.274;7.794;2024-03-08T08:37:44;3.70;99.90
21722;DHT22;11023;48.274;7.794;2024-03-08T08:40:12;3.80;99.90
21722;DHT22;11023;48.274;7.794;2024-03-08T08:42:54;3.90;99.90
21722;DHT22;11023;48.274;7.794;2024-03-08T08:45:27;4.00;99.90
21722;DHT22;11023;48.274;7.794;2024-03-08T08:50:31;4.20;99.90
21722;DHT22;11023;48.274;7.794;2024-03-08T08:52:57;4.30;99.90
21722;DHT22;11023;48.274;7.794;2024-03-08T08:55:24;4.40;99.90
21722;DHT22;11023;48.274;7.794;2024-03-08T08:57:56;4.50;99.90
21722;DHT22;11023;48.274;7.794;2024-03-08T09:00:23;4.50;99.90
21722;DHT22;11023;48.274;7.794;2024-03-08T09:02:53;4.60;99.90
21722;DHT22;11023;48.274;7.794;2024-03-08T09:05:25;4.70;99.90
21722;DHT22;11023;48.274;7.794;2024-03-08T09:07:53;4.70;99.90
21722;DHT22;11023;48.274;7.794;2024-03-08T09:10:22;4.80;99.90
21722;DHT22;11023;48.274;7.794;2024-03-08T09:12:50;4.90;99.90
21722;DHT22;11023;48.274;7.794;2024-03-08T09:15:19;5.00;99.90
21722;DHT22;11023;48.274;7.794;2024-03-08T09:17:47;5.10;99.90
21722;DHT22;11023;48.274;7.794;2024-03-08T09:20:15;5.20;99.90
21722;DHT22;11023;48.274;7.794;2024-03-08T09:22:44;5.30;99.90
21722;DHT22;11023;48.274;7.794;2024-03-08T09:25:09;5.40;99.90
21722;DHT22;11023;48.274;7.794;2024-03-08T09:27:37;5.50;99.90
21722;DHT22;11023;48.274;7.794;2024-03-08T09:30:03;5.50;99.90
21722;DHT22;11023;48.274;7.794;2024-03-08T09:32:29;5.70;99.90
21722;DHT22;11023;48.274;7.794;2024-03-08T09:34:56;5.80;99.90
21722;DHT22;11023;48.274;7.794;2024-03-08T09:37:21;5.80;99.90
21722;DHT22;11023;48.274;7.794;2024-03-08T09:39:48;5.90;99.90
21722;DHT22;11023;48.274;7.794;2024-03-08T09:42:15;6.00;99.90
21722;DHT22;11023;48.274;7.794;2024-03-08T09:44:47;6.10;99.90
21722;DHT22;11023;48.274;7.794;2024-03-08T09:47:14;6.10;99.90
21722;DHT22;11023;48.274;7.794;2024-03-08T09:49:41;6.30;99.90
21722;DHT22;11023;48.274;7.794;2024-03-08T09:52:08;6.40;99.90
21722;DHT22;11023;48.274;7.794;2024-03-08T09:54:34;6.50;99.90
21722;DHT22;11023;48.274;7.794;2024-03-08T09:57:01;6.60;99.90
21722;DHT22;11023;48.274;7.794;2024-03-08T09:59:30;6.70;99.90
21722;DHT22;11023;48.274;7.794;2024-03-08T10:02:19;6.80;99.90
21722;DHT22;11023;48.274;7.794;2024-03-08T10:04:46;7.00;99.90
21722;DHT22;11023;48.274;7.794;2024-03-08T10:07:12;7.10;99.90
21722;DHT22;11023;48.274;7.794;2024-03-08T10:09:38;7.10;99.90
21722;DHT22;11023;48.274;7.794;2024-03-08T10:12:05;7.20;99.90
21722;DHT22;11023;48.274;7.794;2024-03-08T10:14:31;7.30;99.90
21722;DHT22;11023;48.274;7.794;2024-03-08T10:16:59;7.40;99.90
21722;DHT22;11023;48.274;7.794;2024-03-08T10:19:27;7.50;99.90
21722;DHT22;11023;48.274;7.794;2024-03-08T10:21:53;7.60;99.90
21722;DHT22;11023;48.274;7.794;2024-03-08T10:24:19;7.70;99.90
21722;DHT22;11023;48.274;7.794;2024-03-08T10:26:44;7.80;99.90
21722;DHT22;11023;48.274;7.794;2024-03-08T10:29:11;7.80;99.90
21722;DHT22;11023;48.274;7.794;2024-03-08T10:31:43;7.90;99.90
21722;DHT22;11023;48.274;7.794;2024-03-08T10:34:10;8.00;99.90
21722;DHT22;11023;48.274;7.794;2024-03-08T10:36:36;8.10;99.90
21722;DHT22;11023;48.274;7.794;2024-03-08T10:39:11;8.30;99.90
21722;DHT22;11023;48.274;7.794;2024-03-08T10:41:41;8.40;99.90
21722;DHT22;11023;48.274;7.794;2024-03-08T10:47:30;8.60;99.90
21722;DHT22;11023;48.274;7.794;2024-03-08T10:50:10;8.70;99.90
21722;DHT22;11023;48.274;7.794;2024-03-08T10:52:38;8.70;99.90
21722;DHT22;11023;48.274;7.794;2024-03-08T10:55:05;8.90;99.90
21722;DHT22;11023;48.274;7.794;2024-03-08T10:57:38;9.00;99.90
21722;DHT22;11023;48.274;7.794;2024-03-08T11:00:06;9.10;99.90
21722;DHT22;11023;48.274;7.794;2024-03-08T11:02:35;9.20;99.90
21722;DHT22;11023;48.274;7.794;2024-03-08T11:05:02;9.40;99.90
21722;DHT22;11023;48.274;7.794;2024-03-08T11:07:33;9.30;99.90
21722;DHT22;11023;48.274;7.794;2024-03-08T11:10:02;9.30;99.90
21722;DHT22;11023;48.274;7.794;2024-03-08T11:12:36;9.30;99.90
21722;DHT22;11023;48.274;7.794;2024-03-08T11:15:12;9.30;99.90
21722;DHT22;11023;48.274;7.794;2024-03-08T11:20:24;9.40;99.90
21722;DHT22;11023;48.274;7.794;2024-03-08T11:22:59;9.40;99.90
21722;DHT22;11023;48.274;7.794;2024-03-08T11:28:11;9.50;99.90
21722;DHT22;11023;48.274;7.794;2024-03-08T11:30:44;9.60;99.90
21722;DHT22;11023;48.274;7.794;2024-03-08T11:33:13;9.80;99.90
21722;DHT22;11023;48.274;7.794;2024-03-08T11:35:40;9.80;99.90
21722;DHT22;11023;48.274;7.794;2024-03-08T11:38:08;9.80;99.90
21722;DHT22;11023;48.274;7.794;2024-03-08T11:40:35;9.80;99.90
21722;DHT22;11023;48.274;7.794;2024-03-08T11:43:01;9.90;99.90
21722;DHT22;11023;48.274;7.794;2024-03-08T11:45:35;9.90;99.90
21722;DHT22;11023;48.274;7.794;2024-03-08T11:48:03;10.00;99.90
21722;DHT22;11023;48.274;7.794;2024-03-08T11:50:29;10.00;99.90
21722;DHT22;11023;48.274;7.794;2024-03-08T11:53:01;10.00;99.90
21722;DHT22;11023;48.274;7.794;2024-03-08T11:55:28;10.10;99.90
21722;DHT22;11023;48.274;7.794;2024-03-08T11:58:07;10.20;99.90
21722;DHT22;11023;48.274;7.794;2024-03-08T12:00:36;10.30;99.90
21722;DHT22;11023;48.274;7.794;2024-03-08T12:03:08;10.20;99.90
21722;DHT22;11023;48.274;7.794;2024-03-08T12:05:35;10.20;99.90
21722;DHT22;11023;48.274;7.794;2024-03-08T12:08:02;10.30;99.90
21722;DHT22;11023;48.274;7.794;2024-03-08T12:10:28;10.40;99.90
21722;DHT22;11023;48.274;7.794;2024-03-08T12:12:57;10.40;99.90
21722;DHT22;11023;48.274;7.794;2024-03-08T12:15:25;10.40;99.90
21722;DHT22;11023;48.274;7.794;2024-03-08T12:17:52;10.60;99.90
21722;DHT22;11023;48.274;7.794;2024-03-08T12:20:23;10.60;99.90
21722;DHT22;11023;48.274;7.794;2024-03-08T12:22:50;10.60;99.90
21722;DHT22;11023;48.274;7.794;2024-03-08T12:25:18;10.60;99.90
21722;DHT22;11023;48.274;7.794;2024-03-08T12:27:44;10.60;99.90
21722;DHT22;11023;48.274;7.794;2024-03-08T12:30:23;10.80;99.90
21722;DHT22;11023;48.274;7.794;2024-03-08T12:32:58;10.90;99.90
21722;DHT22;11023;48.274;7.794;2024-03-08T12:35:28;10.90;99.90
21722;DHT22;11023;48.274;7.794;2024-03-08T12:37:55;11.00;99.90
21722;DHT22;11023;48.274;7.794;2024-03-08T12:40:31;11.00;99.90
21722;DHT22;11023;48.274;7.794;2024-03-08T12:43:01;11.00;99.90
21722;DHT22;11023;48.274;7.794;2024-03-08T12:45:28;11.10;99.90
21722;DHT22;11023;48.274;7.794;2024-03-08T12:47:54;11.10;99.90
21722;DHT22;11023;48.274;7.794;2024-03-08T12:50:21;11.20;99.90
21722;DHT22;11023;48.274;7.794;2024-03-08T12:52:47;11.20;99.90
21722;DHT22;11023;48.274;7.794;2024-03-08T12:55:14;11.30;99.90
21722;DHT22;11023;48.274;7.794;2024-03-08T12:57:42;11.30;99.90
21722;DHT22;11023;48.274;7.794;2024-03-08T13:00:08;11.20;99.90
21722;DHT22;11023;48.274;7.794;2024-03-08T13:02:39;11.30;99.90
21722;DHT22;11023;48.274;7.794;2024-03-08T13:05:05;11.20;99.90
21722;DHT22;11023;48.274;7.794;2024-03-08T13:07:31;11.30;99.90
21722;DHT22;11023;48.274;7.794;2024-03-08T13:09:57;11.30;99.90
21722;DHT22;11023;48.274;7.794;2024-03-08T13:12:25;11.50;99.90
21722;DHT22;11023;48.274;7.794;2024-03-08T13:14:51;11.60;99.90
21722;DHT22;11023;48.274;7.794;2024-03-08T13:17:17;11.70;99.90
21722;DHT22;11023;48.274;7.794;2024-03-08T13:19:46;11.70;99.90
21722;DHT22;11023;48.274;7.794;2024-03-08T13:22:12;11.70;99.90
21722;DHT22;11023;48.274;7.794;2024-03-08T13:24:44;11.80;99.90
21722;DHT22;11023;48.274;7.794;2024-03-08T13:27:10;11.90;99.90
21722;DHT22;11023;48.274;7.794;2024-03-08T13:29:51;12.00;99.90
21722;DHT22;11023;48.274;7.794;2024-03-08T13:32:16;11.90;99.90
21722;DHT22;11023;48.274;7.794;2024-03-08T13:34:46;12.00;99.90
21722;DHT22;11023;48.274;7.794;2024-03-08T13:37:13;12.00;99.90
21722;DHT22;11023;48.274;7.794;2024-03-08T13:39:41;11.90;99.90
21722;DHT22;11023;48.274;7.794;2024-03-08T13:42:13;11.90;99.90
21722;DHT22;11023;48.274;7.794;2024-03-08T13:44:43;12.00;99.90
21722;DHT22;11023;48.274;7.794;2024-03-08T13:47:08;12.20;99.90
21722;DHT22;11023;48.274;7.794;2024-03-08T13:49:35;12.30;99.90
21722;DHT22;11023;48.274;7.794;2024-03-08T13:52:01;12.20;99.90
21722;DHT22;11023;48.274;7.794;2024-03-08T13:54:27;12.40;99.90
21722;DHT22;11023;48.274;7.794;2024-03-08T13:56:55;12.50;99.90
21722;DHT22;11023;48.274;7.794;2024-03-08T13:59:21;12.50;99.90
21722;DHT22;11023;48.274;7.794;2024-03-08T14:01:54;12.40;99.90
21722;DHT22;11023;48.274;7.794;2024-03-08T14:04:20;12.30;99.90
21722;DHT22;11023;48.274;7.794;2024-03-08T14:06:46;12.40;99.90
21722;DHT22;11023;48.274;7.794;2024-03-08T14:09:12;12.40;99.90
21722;DHT22;11023;48.274;7.794;2024-03-08T14:11:43;12.50;99.90
21722;DHT22;11023;48.274;7.794;2024-03-08T14:14:10;12.60;99.90
21722;DHT22;11023;48.274;7.794;2024-03-08T14:16:38;12.60;99.90
21722;DHT22;11023;48.274;7.794;2024-03-08T14:19:04;12.60;99.90
21722;DHT22;11023;48.274;7.794;2024-03-08T14:21:31;12.60;99.90
21722;DHT22;11023;48.274;7.794;2024-03-08T14:23:57;12.60;99.90
21722;DHT22;11023;48.274;7.794;2024-03-08T14:26:23;12.60;99.90
21722;DHT22;11023;48.274;7.794;2024-03-08T14:28:48;12.60;99.90
21722;DHT22;11023;48.274;7.794;2024-03-08T14:31:17;12.70;99.90
21722;DHT22;11023;48.274;7.794;2024-03-08T14:33:45;12.70;99.90
21722;DHT22;11023;48.274;7.794;2024-03-08T14:36:14;12.60;99.90
21722;DHT22;11023;48.274;7.794;2024-03-08T14:38:42;12.70;99.90
21722;DHT22;11023;48.274;7.794;2024-03-08T14:41:08;12.80;99.90
21722;DHT22;11023;48.274;7.794;2024-03-08T14:43:34;12.80;99.90
21722;DHT22;11023;48.274;7.794;2024-03-08T14:46:00;12.80;99.90
21722;DHT22;11023;48.274;7.794;2024-03-08T14:48:26;12.80;99.90
21722;DHT22;11023;48.274;7.794;2024-03-08T14:50:51;12.90;99.90
21722;DHT22;11023;48.274;7.794;2024-03-08T14:53:17;12.90;99.90
21722;DHT22;11023;48.274;7.794;2024-03-08T14:55:44;12.90;99.90
21722;DHT22;11023;48.274;7.794;2024-03-08T14:58:13;12.90;99.90
21722;DHT22;11023;48.274;7.794;2024-03-08T15:00:39;12.70;99.90
21722;DHT22;11023;48.274;7.794;2024-03-08T15:03:07;12.60;99.90
21722;DHT22;11023;48.274;7.794;2024-03-08T15:05:36;12.60;99.90
21722;DHT22;11023;48.274;7.794;2024-03-08T15:08:07;12.50;99.90
21722;DHT22;11023;48.274;7.794;2024-03-08T15:10:36;12.40;99.90
21722;DHT22;11023;48.274;7.794;2024-03-08T15:13:02;12.30;99.90
21722;DHT22;11023;48.274;7.794;2024-03-08T15:15:33;12.10;99.90
21722;DHT22;11023;48.274;7.794;2024-03-08T15:17:59;12.00;99.90
21722;DHT22;11023;48.274;7.794;2024-03-08T15:20:25;11.90;99.90
21722;DHT22;11023;48.274;7.794;2024-03-08T15:22:55;11.80;99.90
21722;DHT22;11023;48.274;7.794;2024-03-08T15:25:24;11.60;99.90
21722;DHT22;11023;48.274;7.794;2024-03-08T15:27:53;11.60;99.90
21722;DHT22;11023;48.274;7.794;2024-03-08T15:30:19;11.60;99.90
21722;DHT22;11023;48.274;7.794;2024-03-08T15:32:52;11.50;99.90
21722;DHT22;11023;48.274;7.794;2024-03-08T15:35:22;11.50;99.90
21722;DHT22;11023;48.274;7.794;2024-03-08T15:37:48;11.40;99.90
21722;DHT22;11023;48.274;7.794;2024-03-08T15:40:14;11.40;99.90
21722;DHT22;11023;48.274;7.794;2024-03-08T15:45:20;11.20;99.90
21722;DHT22;11023;48.274;7.794;2024-03-08T15:47:46;11.10;99.90
21722;DHT22;11023;48.274;7.794;2024-03-08T15:50:12;11.10;99.90
21722;DHT22;11023;48.274;7.794;2024-03-08T15:52:38;11.10;99.90
21722;DHT22;11023;48.274;7.794;2024-03-08T15:55:07;11.10;99.90
21722;DHT22;11023;48.274;7.794;2024-03-08T15:57:33;11.00;99.90
21722;DHT22;11023;48.274;7.794;2024-03-08T16:00:02;11.00;99.90